Hovedside
METAR-TAF:

METAR-TAF

Lufthavner :

Kiruna lufthavn

Kiruna, Sverige

breddegrad: 67-49N, lengdegrad: 020-20E, høyde over havet: 452 m

Gjeldene værobservasjon

Denne rapporten ble laget for 36 minutter siden, klokken 04:20 UTC
Flau vind
Temperatur 7°C
Luftfuktighet 93%
Trykk 997 hPa
Sikt 10 km eller mer
Få skyer i en høyde av 2000 ft
Overskyet i en høyde av 3900 ft
lett regn

METAR: ESNQ 210420Z 00000KT 9999 -RA FEW020 OVC039 07/06 Q0997

Tid: 06:56 (04:56 UTC)

Varsel

Denne rapporten ble laget for 2 timer og 26 minutter siden, klokken 02:30 UTC
Varsel gyldig fra 21. klokken 03 UTC til 21. klokken 12 UTC
Vind 4 kt fra Vest-nordvest
Sikt 10 km eller mer
Brutte skyer i en høyde av 3500 ft
lett regn
Sannsynlighet 40%
fra 21. klokken 03 UTC til 21. klokken 12 UTC
Brutte skyer i en høyde av 1400 ft
regn

TAF: ESNQ 210230Z 2103/2112 29004KT 9999 -RA BKN035 PROB40 2103/2112 RA BKN014

Værobservasjoner og værvarsel for over 4000 flyplasser (METAR- og TAF-rapporter).

Tilgjengelige stasjoner er representert av de røde og gule prikkene på kartet.

Hold musepekeren over prikken for å se navnet på stasjonen.

Klikk så for å se værobservasjoner og -varsler.

For å forandre kartet kan du klikke på den grønne knappen med svart kryss for å zoome inn, på den grønne knappen med strek for å zoome ut, eller på de grønne pilene for å se tilstøtende kart.


METAR-TAF: